sensor_id;sensor_type;location;lat;lon;timestamp;temperature;humidity
8832;DHT22;4452;50.756;4.472;2024-01-16T00:00:01;0.60;99.90
8832;DHT22;4452;50.756;4.472;2024-01-16T00:02:27;0.60;99.90
8832;DHT22;4452;50.756;4.472;2024-01-16T00:04:53;0.60;99.90
8832;DHT22;4452;50.756;4.472;2024-01-16T00:07:19;0.50;99.90
8832;DHT22;4452;50.756;4.472;2024-01-16T00:09:44;0.50;99.90
8832;DHT22;4452;50.756;4.472;2024-01-16T00:12:11;0.40;99.90
8832;DHT22;4452;50.756;4.472;2024-01-16T00:14:36;0.40;99.90
8832;DHT22;4452;50.756;4.472;2024-01-16T00:17:02;0.40;99.90
8832;DHT22;4452;50.756;4.472;2024-01-16T00:19:28;0.40;99.90
8832;DHT22;4452;50.756;4.472;2024-01-16T00:21:54;0.40;99.90
8832;DHT22;4452;50.756;4.472;2024-01-16T00:24:20;0.30;99.90
8832;DHT22;4452;50.756;4.472;2024-01-16T00:26:45;0.30;99.90
8832;DHT22;4452;50.756;4.472;2024-01-16T00:29:12;0.30;99.90
8832;DHT22;4452;50.756;4.472;2024-01-16T00:31:41;0.30;99.90
8832;DHT22;4452;50.756;4.472;2024-01-16T00:34:06;0.30;99.90
8832;DHT22;4452;50.756;4.472;2024-01-16T00:36:33;0.30;99.90
8832;DHT22;4452;50.756;4.472;2024-01-16T00:38:58;0.30;99.90
8832;DHT22;4452;50.756;4.472;2024-01-16T00:41:24;0.30;99.90
8832;DHT22;4452;50.756;4.472;2024-01-16T00:43:50;0.30;99.90
8832;DHT22;4452;50.756;4.472;2024-01-16T00:46:15;0.30;99.90
8832;DHT22;4452;50.756;4.472;2024-01-16T00:48:41;0.30;99.90
8832;DHT22;4452;50.756;4.472;2024-01-16T00:51:07;0.30;99.90
8832;DHT22;4452;50.756;4.472;2024-01-16T00:53:32;0.40;99.90
8832;DHT22;4452;50.756;4.472;2024-01-16T00:55:58;0.40;99.90
8832;DHT22;4452;50.756;4.472;2024-01-16T00:58:24;0.30;99.90
8832;DHT22;4452;50.756;4.472;2024-01-16T01:00:50;0.40;99.90
8832;DHT22;4452;50.756;4.472;2024-01-16T01:03:15;0.30;99.90
8832;DHT22;4452;50.756;4.472;2024-01-16T01:05:41;0.30;99.90
8832;DHT22;4452;50.756;4.472;2024-01-16T01:08:07;0.30;99.90
8832;DHT22;4452;50.756;4.472;2024-01-16T01:10:33;0.30;99.90
8832;DHT22;4452;50.756;4.472;2024-01-16T01:12:58;0.70;99.90
8832;DHT22;4452;50.756;4.472;2024-01-16T01:15:24;0.30;99.90
8832;DHT22;4452;50.756;4.472;2024-01-16T01:17:50;0.60;99.90
8832;DHT22;4452;50.756;4.472;2024-01-16T01:20:17;0.70;99.90
8832;DHT22;4452;50.756;4.472;2024-01-16T01:22:44;0.20;99.90
8832;DHT22;4452;50.756;4.472;2024-01-16T01:25:11;0.20;99.90
8832;DHT22;4452;50.756;4.472;2024-01-16T01:27:38;0.20;99.90
8832;DHT22;4452;50.756;4.472;2024-01-16T01:30:04;0.20;99.90
8832;DHT22;4452;50.756;4.472;2024-01-16T01:32:30;0.20;99.90
8832;DHT22;4452;50.756;4.472;2024-01-16T01:34:55;0.20;99.90
8832;DHT22;4452;50.756;4.472;2024-01-16T01:37:21;0.20;99.90
8832;DHT22;4452;50.756;4.472;2024-01-16T01:39:46;0.20;99.90
8832;DHT22;4452;50.756;4.472;2024-01-16T01:42:12;0.10;99.90
8832;DHT22;4452;50.756;4.472;2024-01-16T01:44:38;0.20;99.90
8832;DHT22;4452;50.756;4.472;2024-01-16T01:47:04;0.10;99.90
8832;DHT22;4452;50.756;4.472;2024-01-16T01:49:31;0.00;99.90
8832;DHT22;4452;50.756;4.472;2024-01-16T01:51:57;0.00;99.90
8832;DHT22;4452;50.756;4.472;2024-01-16T01:54:24;0.00;99.90
8832;DHT22;4452;50.756;4.472;2024-01-16T01:56:51;0.00;99.90
8832;DHT22;4452;50.756;4.472;2024-01-16T01:59:20;0.00;99.90
8832;DHT22;4452;50.756;4.472;2024-01-16T02:01:47;-0.10;99.90
8832;DHT22;4452;50.756;4.472;2024-01-16T02:04:14;-0.10;99.90
8832;DHT22;4452;50.756;4.472;2024-01-16T02:06:42;-0.10;99.90
8832;DHT22;4452;50.756;4.472;2024-01-16T02:09:13;-0.20;99.90
8832;DHT22;4452;50.756;4.472;2024-01-16T02:11:42;-0.20;99.90
8832;DHT22;4452;50.756;4.472;2024-01-16T02:14:08;-0.20;99.90
8832;DHT22;4452;50.756;4.472;2024-01-16T02:16:41;-0.20;99.90
8832;DHT22;4452;50.756;4.472;2024-01-16T02:19:07;-0.30;99.90
8832;DHT22;4452;50.756;4.472;2024-01-16T02:21:42;-0.20;99.90
8832;DHT22;4452;50.756;4.472;2024-01-16T02:24:10;-0.30;99.90
8832;DHT22;4452;50.756;4.472;2024-01-16T02:26:37;-0.30;99.90
8832;DHT22;4452;50.756;4.472;2024-01-16T02:29:03;-0.30;99.90
8832;DHT22;4452;50.756;4.472;2024-01-16T02:31:30;-0.30;99.90
8832;DHT22;4452;50.756;4.472;2024-01-16T02:33:56;-0.40;99.90
8832;DHT22;4452;50.756;4.472;2024-01-16T02:36:22;-0.40;99.90
8832;DHT22;4452;50.756;4.472;2024-01-16T02:38:47;-0.40;99.90
8832;DHT22;4452;50.756;4.472;2024-01-16T02:41:16;-0.40;99.90
8832;DHT22;4452;50.756;4.472;2024-01-16T02:43:42;-0.40;99.90
8832;DHT22;4452;50.756;4.472;2024-01-16T02:46:08;-0.50;99.90
8832;DHT22;4452;50.756;4.472;2024-01-16T02:48:37;-0.50;99.90
8832;DHT22;4452;50.756;4.472;2024-01-16T02:51:03;-0.50;99.90
8832;DHT22;4452;50.756;4.472;2024-01-16T02:53:30;-0.50;99.90
8832;DHT22;4452;50.756;4.472;2024-01-16T02:55:56;-0.50;99.90
8832;DHT22;4452;50.756;4.472;2024-01-16T02:58:28;-0.50;99.90
8832;DHT22;4452;50.756;4.472;2024-01-16T03:00:55;-0.50;99.90
8832;DHT22;4452;50.756;4.472;2024-01-16T03:03:21;-0.50;99.90
8832;DHT22;4452;50.756;4.472;2024-01-16T03:05:47;-0.60;99.90
8832;DHT22;4452;50.756;4.472;2024-01-16T03:08:13;-0.60;99.90
8832;DHT22;4452;50.756;4.472;2024-01-16T03:10:39;-0.60;99.90
8832;DHT22;4452;50.756;4.472;2024-01-16T03:13:05;-0.60;99.90
8832;DHT22;4452;50.756;4.472;2024-01-16T03:15:30;-0.60;99.90
8832;DHT22;4452;50.756;4.472;2024-01-16T03:17:57;-0.60;99.90
8832;DHT22;4452;50.756;4.472;2024-01-16T03:20:23;-0.60;99.90
8832;DHT22;4452;50.756;4.472;2024-01-16T03:22:49;-0.70;99.90
8832;DHT22;4452;50.756;4.472;2024-01-16T03:25:16;-0.60;99.90
8832;DHT22;4452;50.756;4.472;2024-01-16T03:27:42;-0.60;99.90
8832;DHT22;4452;50.756;4.472;2024-01-16T03:30:08;-0.70;99.90
8832;DHT22;4452;50.756;4.472;2024-01-16T03:32:35;-0.70;99.90
8832;DHT22;4452;50.756;4.472;2024-01-16T03:35:01;-0.70;99.90
8832;DHT22;4452;50.756;4.472;2024-01-16T03:37:26;-0.30;99.90
8832;DHT22;4452;50.756;4.472;2024-01-16T03:39:52;-0.70;99.90
8832;DHT22;4452;50.756;4.472;2024-01-16T03:42:20;-0.70;99.90
8832;DHT22;4452;50.756;4.472;2024-01-16T03:44:46;-0.80;99.90
8832;DHT22;4452;50.756;4.472;2024-01-16T03:47:12;-0.80;99.90
8832;DHT22;4452;50.756;4.472;2024-01-16T03:49:38;-0.80;99.90
8832;DHT22;4452;50.756;4.472;2024-01-16T03:52:04;-0.80;99.90
8832;DHT22;4452;50.756;4.472;2024-01-16T03:54:30;-0.80;99.90
8832;DHT22;4452;50.756;4.472;2024-01-16T03:56:55;-0.90;99.90
8832;DHT22;4452;50.756;4.472;2024-01-16T03:59:21;-0.90;99.90
8832;DHT22;4452;50.756;4.472;2024-01-16T04:01:47;-0.90;99.90
8832;DHT22;4452;50.756;4.472;2024-01-16T04:04:15;-1.00;99.90
8832;DHT22;4452;50.756;4.472;2024-01-16T04:06:41;-1.00;99.90
8832;DHT22;4452;50.756;4.472;2024-01-16T04:09:07;-1.10;99.90
8832;DHT22;4452;50.756;4.472;2024-01-16T04:11:34;-1.10;99.90
8832;DHT22;4452;50.756;4.472;2024-01-16T04:14:00;-1.10;99.90
8832;DHT22;4452;50.756;4.472;2024-01-16T04:16:26;-1.20;99.90
8832;DHT22;4452;50.756;4.472;2024-01-16T04:18:52;-1.20;99.90
8832;DHT22;4452;50.756;4.472;2024-01-16T04:21:18;-1.20;99.90
8832;DHT22;4452;50.756;4.472;2024-01-16T04:23:43;-1.20;99.90
8832;DHT22;4452;50.756;4.472;2024-01-16T04:26:09;-1.20;99.90
8832;DHT22;4452;50.756;4.472;2024-01-16T04:28:35;-1.30;99.90
8832;DHT22;4452;50.756;4.472;2024-01-16T04:31:03;-1.30;99.90
8832;DHT22;4452;50.756;4.472;2024-01-16T04:33:29;-1.30;99.90
8832;DHT22;4452;50.756;4.472;2024-01-16T04:35:55;-1.30;99.90
8832;DHT22;4452;50.756;4.472;2024-01-16T04:38:21;-1.30;99.90
8832;DHT22;4452;50.756;4.472;2024-01-16T04:40:46;-1.30;99.90
8832;DHT22;4452;50.756;4.472;2024-01-16T04:43:12;-1.30;99.90
8832;DHT22;4452;50.756;4.472;2024-01-16T04:45:38;-1.40;99.90
8832;DHT22;4452;50.756;4.472;2024-01-16T04:48:04;-1.40;99.90
8832;DHT22;4452;50.756;4.472;2024-01-16T04:50:29;-1.40;99.90
8832;DHT22;4452;50.756;4.472;2024-01-16T04:52:58;-1.40;99.90
8832;DHT22;4452;50.756;4.472;2024-01-16T04:55:30;-1.50;99.90
8832;DHT22;4452;50.756;4.472;2024-01-16T04:57:56;-1.40;99.90
8832;DHT22;4452;50.756;4.472;2024-01-16T05:00:22;-1.50;99.90
8832;DHT22;4452;50.756;4.472;2024-01-16T05:02:49;-1.50;99.90
8832;DHT22;4452;50.756;4.472;2024-01-16T05:05:14;-1.60;99.90
8832;DHT22;4452;50.756;4.472;2024-01-16T05:07:41;-1.60;99.90
8832;DHT22;4452;50.756;4.472;2024-01-16T05:10:09;-1.60;99.90
8832;DHT22;4452;50.756;4.472;2024-01-16T05:12:35;-1.60;99.90
8832;DHT22;4452;50.756;4.472;2024-01-16T05:15:01;-1.60;99.90
8832;DHT22;4452;50.756;4.472;2024-01-16T05:17:27;-1.60;99.90
8832;DHT22;4452;50.756;4.472;2024-01-16T05:19:52;-1.60;99.90
8832;DHT22;4452;50.756;4.472;2024-01-16T05:22:18;-1.60;99.90
8832;DHT22;4452;50.756;4.472;2024-01-16T05:24:43;-1.60;99.90
8832;DHT22;4452;50.756;4.472;2024-01-16T05:27:09;-1.60;99.90
8832;DHT22;4452;50.756;4.472;2024-01-16T05:29:35;-1.50;99.90
8832;DHT22;4452;50.756;4.472;2024-01-16T05:32:04;-1.60;99.90
8832;DHT22;4452;50.756;4.472;2024-01-16T05:34:30;-1.60;99.90
8832;DHT22;4452;50.756;4.472;2024-01-16T05:36:55;-1.60;99.90
8832;DHT22;4452;50.756;4.472;2024-01-16T05:39:21;-1.70;99.90
8832;DHT22;4452;50.756;4.472;2024-01-16T05:41:47;-1.60;99.90
8832;DHT22;4452;50.756;4.472;2024-01-16T05:44:12;-1.60;99.90
8832;DHT22;4452;50.756;4.472;2024-01-16T05:46:38;-1.60;99.90
8832;DHT22;4452;50.756;4.472;2024-01-16T05:49:04;-1.60;99.90
8832;DHT22;4452;50.756;4.472;2024-01-16T05:51:29;-1.60;99.90
8832;DHT22;4452;50.756;4.472;2024-01-16T05:53:55;-1.60;99.90
8832;DHT22;4452;50.756;4.472;2024-01-16T05:56:21;-1.60;99.90
8832;DHT22;4452;50.756;4.472;2024-01-16T05:58:47;-1.60;99.90
8832;DHT22;4452;50.756;4.472;2024-01-16T06:01:12;-1.60;99.90
8832;DHT22;4452;50.756;4.472;2024-01-16T06:03:39;-1.60;99.90
8832;DHT22;4452;50.756;4.472;2024-01-16T06:06:07;-1.60;99.90
8832;DHT22;4452;50.756;4.472;2024-01-16T06:08:33;-1.60;99.90
8832;DHT22;4452;50.756;4.472;2024-01-16T06:10:59;-1.50;99.90
8832;DHT22;4452;50.756;4.472;2024-01-16T06:13:25;-1.20;99.90
8832;DHT22;4452;50.756;4.472;2024-01-16T06:15:51;-1.50;99.90
8832;DHT22;4452;50.756;4.472;2024-01-16T06:18:16;-1.60;99.90
8832;DHT22;4452;50.756;4.472;2024-01-16T06:20:42;-1.60;99.90
8832;DHT22;4452;50.756;4.472;2024-01-16T06:23:08;-1.50;99.90
8832;DHT22;4452;50.756;4.472;2024-01-16T06:25:34;-1.50;99.90
8832;DHT22;4452;50.756;4.472;2024-01-16T06:27:59;-1.50;99.90
8832;DHT22;4452;50.756;4.472;2024-01-16T06:30:25;-1.50;99.90
8832;DHT22;4452;50.756;4.472;2024-01-16T06:32:51;-1.50;99.90
8832;DHT22;4452;50.756;4.472;2024-01-16T06:35:17;-1.40;99.90
8832;DHT22;4452;50.756;4.472;2024-01-16T06:37:43;-1.40;99.90
8832;DHT22;4452;50.756;4.472;2024-01-16T06:40:09;-1.30;99.90
8832;DHT22;4452;50.756;4.472;2024-01-16T06:42:36;-1.40;99.90
8832;DHT22;4452;50.756;4.472;2024-01-16T06:45:03;-1.30;99.90
8832;DHT22;4452;50.756;4.472;2024-01-16T06:47:29;-1.70;99.90
8832;DHT22;4452;50.756;4.472;2024-01-16T06:49:54;-1.40;99.90
8832;DHT22;4452;50.756;4.472;2024-01-16T06:52:20;-1.50;99.90
8832;DHT22;4452;50.756;4.472;2024-01-16T06:54:46;-1.50;99.90
8832;DHT22;4452;50.756;4.472;2024-01-16T06:57:11;-1.50;99.90
8832;DHT22;4452;50.756;4.472;2024-01-16T06:59:37;-1.10;99.90
8832;DHT22;4452;50.756;4.472;2024-01-16T07:02:03;-1.60;99.90
8832;DHT22;4452;50.756;4.472;2024-01-16T07:04:29;-1.60;99.90
8832;DHT22;4452;50.756;4.472;2024-01-16T07:06:55;-1.60;99.90
8832;DHT22;4452;50.756;4.472;2024-01-16T07:09:20;-1.60;99.90
8832;DHT22;4452;50.756;4.472;2024-01-16T07:11:47;-1.30;99.90
8832;DHT22;4452;50.756;4.472;2024-01-16T07:14:12;-1.70;99.90
8832;DHT22;4452;50.756;4.472;2024-01-16T07:16:38;-1.80;99.90
8832;DHT22;4452;50.756;4.472;2024-01-16T07:19:04;-1.80;99.90
8832;DHT22;4452;50.756;4.472;2024-01-16T07:21:30;-1.80;99.90
8832;DHT22;4452;50.756;4.472;2024-01-16T07:23:55;-1.80;99.90
8832;DHT22;4452;50.756;4.472;2024-01-16T07:26:22;-1.80;99.90
8832;DHT22;4452;50.756;4.472;2024-01-16T07:28:48;-1.80;99.90
8832;DHT22;4452;50.756;4.472;2024-01-16T07:31:14;-1.80;99.90
8832;DHT22;4452;50.756;4.472;2024-01-16T07:33:42;-1.80;99.90
8832;DHT22;4452;50.756;4.472;2024-01-16T07:36:08;-1.80;99.90
8832;DHT22;4452;50.756;4.472;2024-01-16T07:38:34;-1.90;99.90
8832;DHT22;4452;50.756;4.472;2024-01-16T07:41:01;-1.90;99.90
8832;DHT22;4452;50.756;4.472;2024-01-16T07:43:27;-1.80;99.90
8832;DHT22;4452;50.756;4.472;2024-01-16T07:45:55;-1.80;99.90
8832;DHT22;4452;50.756;4.472;2024-01-16T07:48:20;-1.80;99.90
8832;DHT22;4452;50.756;4.472;2024-01-16T07:50:48;-1.80;99.90
8832;DHT22;4452;50.756;4.472;2024-01-16T07:53:14;-1.70;99.90
8832;DHT22;4452;50.756;4.472;2024-01-16T07:55:41;-1.80;99.90
8832;DHT22;4452;50.756;4.472;2024-01-16T07:58:06;-1.80;99.90
8832;DHT22;4452;50.756;4.472;2024-01-16T08:00:32;-1.70;99.90
8832;DHT22;4452;50.756;4.472;2024-01-16T08:02:57;-1.70;99.90
8832;DHT22;4452;50.756;4.472;2024-01-16T08:05:23;-1.70;99.90
8832;DHT22;4452;50.756;4.472;2024-01-16T08:07:51;-1.60;99.90
8832;DHT22;4452;50.756;4.472;2024-01-16T08:10:17;-1.60;99.90
8832;DHT22;4452;50.756;4.472;2024-01-16T08:12:42;-1.50;99.90
8832;DHT22;4452;50.756;4.472;2024-01-16T08:15:09;-1.40;99.90
8832;DHT22;4452;50.756;4.472;2024-01-16T08:17:35;-1.40;99.90
8832;DHT22;4452;50.756;4.472;2024-01-16T08:20:00;-1.40;99.90
8832;DHT22;4452;50.756;4.472;2024-01-16T08:22:26;-1.30;99.90
8832;DHT22;4452;50.756;4.472;2024-01-16T08:24:52;-1.40;99.90
8832;DHT22;4452;50.756;4.472;2024-01-16T08:27:19;-1.30;99.90
8832;DHT22;4452;50.756;4.472;2024-01-16T08:29:44;-1.30;99.90
8832;DHT22;4452;50.756;4.472;2024-01-16T08:32:10;-1.30;99.90
8832;DHT22;4452;50.756;4.472;2024-01-16T08:34:36;-1.20;99.90
8832;DHT22;4452;50.756;4.472;2024-01-16T08:37:01;-1.20;99.90
8832;DHT22;4452;50.756;4.472;2024-01-16T08:39:27;-1.10;99.90
8832;DHT22;4452;50.756;4.472;2024-01-16T08:41:54;-1.10;99.90
8832;DHT22;4452;50.756;4.472;2024-01-16T08:44:19;-1.10;99.90
8832;DHT22;4452;50.756;4.472;2024-01-16T08:46:45;-1.00;99.90
8832;DHT22;4452;50.756;4.472;2024-01-16T08:49:11;-1.00;99.90
8832;DHT22;4452;50.756;4.472;2024-01-16T08:51:39;-0.90;99.90
8832;DHT22;4452;50.756;4.472;2024-01-16T08:54:06;-0.90;99.90
8832;DHT22;4452;50.756;4.472;2024-01-16T08:56:32;-0.90;99.90
8832;DHT22;4452;50.756;4.472;2024-01-16T08:58:58;-0.90;99.90
8832;DHT22;4452;50.756;4.472;2024-01-16T09:01:23;-0.90;99.90
8832;DHT22;4452;50.756;4.472;2024-01-16T09:03:49;-0.90;99.90
8832;DHT22;4452;50.756;4.472;2024-01-16T09:06:15;-0.90;99.90
8832;DHT22;4452;50.756;4.472;2024-01-16T09:08:40;-0.80;99.90
8832;DHT22;4452;50.756;4.472;2024-01-16T09:11:06;-0.70;99.90
8832;DHT22;4452;50.756;4.472;2024-01-16T09:13:32;-0.70;99.90
8832;DHT22;4452;50.756;4.472;2024-01-16T09:15:57;-0.70;99.90
8832;DHT22;4452;50.756;4.472;2024-01-16T09:18:23;-0.60;99.90
8832;DHT22;4452;50.756;4.472;2024-01-16T09:20:48;-0.60;99.90
8832;DHT22;4452;50.756;4.472;2024-01-16T09:23:14;-0.60;99.90
8832;DHT22;4452;50.756;4.472;2024-01-16T09:25:40;-0.60;99.90
8832;DHT22;4452;50.756;4.472;2024-01-16T09:28:05;-0.50;99.90
8832;DHT22;4452;50.756;4.472;2024-01-16T09:30:32;-0.40;99.90
8832;DHT22;4452;50.756;4.472;2024-01-16T09:32:58;-0.40;99.90
8832;DHT22;4452;50.756;4.472;2024-01-16T09:35:24;-0.40;99.90
8832;DHT22;4452;50.756;4.472;2024-01-16T09:37:49;-0.30;99.90
8832;DHT22;4452;50.756;4.472;2024-01-16T09:40:16;-0.20;99.90
8832;DHT22;4452;50.756;4.472;2024-01-16T09:42:42;-0.30;99.90
8832;DHT22;4452;50.756;4.472;2024-01-16T09:45:09;-0.30;99.90
8832;DHT22;4452;50.756;4.472;2024-01-16T09:47:37;-0.30;99.90
8832;DHT22;4452;50.756;4.472;2024-01-16T09:50:03;-0.20;99.90
8832;DHT22;4452;50.756;4.472;2024-01-16T09:52:29;-0.30;99.90
8832;DHT22;4452;50.756;4.472;2024-01-16T09:54:55;-0.30;99.90
8832;DHT22;4452;50.756;4.472;2024-01-16T09:57:25;-0.30;99.90
8832;DHT22;4452;50.756;4.472;2024-01-16T09:59:55;-0.30;99.90
8832;DHT22;4452;50.756;4.472;2024-01-16T10:02:22;-0.40;99.90
8832;DHT22;4452;50.756;4.472;2024-01-16T10:04:49;-0.40;99.90
8832;DHT22;4452;50.756;4.472;2024-01-16T10:07:15;-0.40;99.90
8832;DHT22;4452;50.756;4.472;2024-01-16T10:09:43;-0.40;99.90
8832;DHT22;4452;50.756;4.472;2024-01-16T10:12:09;-0.30;99.90
8832;DHT22;4452;50.756;4.472;2024-01-16T10:14:37;-0.10;99.90
8832;DHT22;4452;50.756;4.472;2024-01-16T10:17:04;0.00;99.90
8832;DHT22;4452;50.756;4.472;2024-01-16T10:19:49;0.00;99.90
8832;DHT22;4452;50.756;4.472;2024-01-16T10:22:21;0.00;99.90
8832;DHT22;4452;50.756;4.472;2024-01-16T10:24:47;0.00;99.90
8832;DHT22;4452;50.756;4.472;2024-01-16T10:27:15;0.00;99.90
8832;DHT22;4452;50.756;4.472;2024-01-16T10:29:55;0.00;99.90
8832;DHT22;4452;50.756;4.472;2024-01-16T10:32:28;-0.10;99.90
8832;DHT22;4452;50.756;4.472;2024-01-16T10:35:09;-0.10;99.90
8832;DHT22;4452;50.756;4.472;2024-01-16T10:37:52;0.00;99.90
8832;DHT22;4452;50.756;4.472;2024-01-16T10:40:24;0.10;99.90
8832;DHT22;4452;50.756;4.472;2024-01-16T10:45:30;0.00;99.90
8832;DHT22;4452;50.756;4.472;2024-01-16T10:48:02;0.00;99.90
8832;DHT22;4452;50.756;4.472;2024-01-16T10:50:29;0.20;99.90
8832;DHT22;4452;50.756;4.472;2024-01-16T10:52:55;0.20;99.90
8832;DHT22;4452;50.756;4.472;2024-01-16T10:55:24;0.30;99.90
8832;DHT22;4452;50.756;4.472;2024-01-16T10:57:50;0.50;99.90
8832;DHT22;4452;50.756;4.472;2024-01-16T11:00:23;0.60;99.90
8832;DHT22;4452;50.756;4.472;2024-01-16T11:02:59;0.70;99.90
8832;DHT22;4452;50.756;4.472;2024-01-16T11:05:26;0.80;99.90
8832;DHT22;4452;50.756;4.472;2024-01-16T11:07:55;0.80;99.90
8832;DHT22;4452;50.756;4.472;2024-01-16T11:10:22;0.80;99.90
8832;DHT22;4452;50.756;4.472;2024-01-16T11:12:51;0.90;99.90
8832;DHT22;4452;50.756;4.472;2024-01-16T11:15:18;1.00;99.90
8832;DHT22;4452;50.756;4.472;2024-01-16T11:17:45;1.10;99.90
8832;DHT22;4452;50.756;4.472;2024-01-16T11:20:12;1.10;99.90
8832;DHT22;4452;50.756;4.472;2024-01-16T11:22:43;1.10;99.90
8832;DHT22;4452;50.756;4.472;2024-01-16T11:25:13;1.30;99.90
8832;DHT22;4452;50.756;4.472;2024-01-16T11:27:41;1.50;99.90
8832;DHT22;4452;50.756;4.472;2024-01-16T11:30:08;1.60;99.90
8832;DHT22;4452;50.756;4.472;2024-01-16T11:32:36;1.50;99.90
8832;DHT22;4452;50.756;4.472;2024-01-16T11:35:03;1.40;99.90
8832;DHT22;4452;50.756;4.472;2024-01-16T11:37:33;1.50;99.90
8832;DHT22;4452;50.756;4.472;2024-01-16T11:42:47;1.50;99.90
8832;DHT22;4452;50.756;4.472;2024-01-16T11:48:12;1.50;99.90
8832;DHT22;4452;50.756;4.472;2024-01-16T11:50:39;1.60;99.90
8832;DHT22;4452;50.756;4.472;2024-01-16T11:53:05;1.60;99.90
8832;DHT22;4452;50.756;4.472;2024-01-16T11:58:20;1.70;99.90
8832;DHT22;4452;50.756;4.472;2024-01-16T12:00:51;1.70;99.90
8832;DHT22;4452;50.756;4.472;2024-01-16T12:03:20;1.90;99.90
8832;DHT22;4452;50.756;4.472;2024-01-16T12:05:59;1.80;99.90
8832;DHT22;4452;50.756;4.472;2024-01-16T12:08:25;1.60;99.90
8832;DHT22;4452;50.756;4.472;2024-01-16T12:10:51;1.70;99.90
8832;DHT22;4452;50.756;4.472;2024-01-16T12:13:17;1.80;99.90
8832;DHT22;4452;50.756;4.472;2024-01-16T12:15:43;1.70;99.90
8832;DHT22;4452;50.756;4.472;2024-01-16T12:18:09;1.60;99.90
8832;DHT22;4452;50.756;4.472;2024-01-16T12:20:36;1.80;99.90
8832;DHT22;4452;50.756;4.472;2024-01-16T12:23:04;1.60;99.90
8832;DHT22;4452;50.756;4.472;2024-01-16T12:25:32;1.80;99.90
8832;DHT22;4452;50.756;4.472;2024-01-16T12:28:02;1.90;99.90
8832;DHT22;4452;50.756;4.472;2024-01-16T12:30:34;1.80;99.90
8832;DHT22;4452;50.756;4.472;2024-01-16T12:33:10;1.90;99.90
8832;DHT22;4452;50.756;4.472;2024-01-16T12:35:40;1.90;99.90
8832;DHT22;4452;50.756;4.472;2024-01-16T12:38:08;1.80;99.90
8832;DHT22;4452;50.756;4.472;2024-01-16T12:40:39;1.90;99.90
8832;DHT22;4452;50.756;4.472;2024-01-16T12:43:06;1.90;99.90
8832;DHT22;4452;50.756;4.472;2024-01-16T12:45:32;2.10;99.90
8832;DHT22;4452;50.756;4.472;2024-01-16T12:47:59;2.10;99.90
8832;DHT22;4452;50.756;4.472;2024-01-16T12:50:26;2.00;99.90
8832;DHT22;4452;50.756;4.472;2024-01-16T12:53:12;2.00;99.90
8832;DHT22;4452;50.756;4.472;2024-01-16T12:55:39;2.10;99.90
8832;DHT22;4452;50.756;4.472;2024-01-16T12:58:19;2.10;99.90
8832;DHT22;4452;50.756;4.472;2024-01-16T13:00:46;2.00;99.90
8832;DHT22;4452;50.756;4.472;2024-01-16T13:05:48;2.10;99.90
8832;DHT22;4452;50.756;4.472;2024-01-16T13:08:19;2.00;99.90
8832;DHT22;4452;50.756;4.472;2024-01-16T13:13:28;2.30;99.90
8832;DHT22;4452;50.756;4.472;2024-01-16T13:15:54;2.20;99.90
8832;DHT22;4452;50.756;4.472;2024-01-16T13:18:24;1.90;99.90
8832;DHT22;4452;50.756;4.472;2024-01-16T13:20:55;1.90;99.90
8832;DHT22;4452;50.756;4.472;2024-01-16T13:23:21;1.80;99.90
8832;DHT22;4452;50.756;4.472;2024-01-16T13:25:48;1.80;99.90
8832;DHT22;4452;50.756;4.472;2024-01-16T13:28:15;2.00;99.90
8832;DHT22;4452;50.756;4.472;2024-01-16T13:30:41;2.10;99.90
8832;DHT22;4452;50.756;4.472;2024-01-16T13:33:08;2.10;99.90
8832;DHT22;4452;50.756;4.472;2024-01-16T13:35:41;2.30;99.90
8832;DHT22;4452;50.756;4.472;2024-01-16T13:38:07;2.10;99.90
8832;DHT22;4452;50.756;4.472;2024-01-16T13:40:34;2.10;99.90
8832;DHT22;4452;50.756;4.472;2024-01-16T13:43:01;2.20;99.90
8832;DHT22;4452;50.756;4.472;2024-01-16T13:45:30;2.30;99.90
8832;DHT22;4452;50.756;4.472;2024-01-16T13:47:56;2.40;99.90
8832;DHT22;4452;50.756;4.472;2024-01-16T13:50:22;2.30;99.90
8832;DHT22;4452;50.756;4.472;2024-01-16T13:52:48;2.30;99.90
8832;DHT22;4452;50.756;4.472;2024-01-16T13:55:14;2.30;99.90
8832;DHT22;4452;50.756;4.472;2024-01-16T13:57:40;2.30;99.90
8832;DHT22;4452;50.756;4.472;2024-01-16T14:00:11;2.60;99.90
8832;DHT22;4452;50.756;4.472;2024-01-16T14:02:46;2.70;99.90
8832;DHT22;4452;50.756;4.472;2024-01-16T14:05:13;2.90;99.90
8832;DHT22;4452;50.756;4.472;2024-01-16T14:07:49;2.90;99.90
8832;DHT22;4452;50.756;4.472;2024-01-16T14:10:16;2.90;99.90
8832;DHT22;4452;50.756;4.472;2024-01-16T14:12:43;2.90;99.90
8832;DHT22;4452;50.756;4.472;2024-01-16T14:15:10;2.80;99.90
8832;DHT22;4452;50.756;4.472;2024-01-16T14:17:45;3.00;99.90
8832;DHT22;4452;50.756;4.472;2024-01-16T14:20:11;3.00;99.90
8832;DHT22;4452;50.756;4.472;2024-01-16T14:22:38;2.60;99.90
8832;DHT22;4452;50.756;4.472;2024-01-16T14:25:06;2.60;99.90
8832;DHT22;4452;50.756;4.472;2024-01-16T14:27:38;2.60;99.90
8832;DHT22;4452;50.756;4.472;2024-01-16T14:30:05;2.30;99.90
8832;DHT22;4452;50.756;4.472;2024-01-16T14:32:33;2.20;99.90
8832;DHT22;4452;50.756;4.472;2024-01-16T14:34:58;2.50;99.90
8832;DHT22;4452;50.756;4.472;2024-01-16T14:37:24;2.60;99.90
8832;DHT22;4452;50.756;4.472;2024-01-16T14:39:51;2.70;99.90
8832;DHT22;4452;50.756;4.472;2024-01-16T14:42:19;2.60;99.90
8832;DHT22;4452;50.756;4.472;2024-01-16T14:44:47;2.40;99.90
8832;DHT22;4452;50.756;4.472;2024-01-16T14:47:15;2.10;99.90
8832;DHT22;4452;50.756;4.472;2024-01-16T14:49:43;1.90;99.90
8832;DHT22;4452;50.756;4.472;2024-01-16T14:52:11;1.80;99.90
8832;DHT22;4452;50.756;4.472;2024-01-16T14:54:39;1.70;99.90
8832;DHT22;4452;50.756;4.472;2024-01-16T14:57:06;1.60;99.90
8832;DHT22;4452;50.756;4.472;2024-01-16T14:59:35;1.60;99.90
8832;DHT22;4452;50.756;4.472;2024-01-16T15:02:03;1.60;99.90
8832;DHT22;4452;50.756;4.472;2024-01-16T15:04:42;1.60;99.90
8832;DHT22;4452;50.756;4.472;2024-01-16T15:07:11;1.50;99.90
8832;DHT22;4452;50.756;4.472;2024-01-16T15:09:38;1.50;99.90
8832;DHT22;4452;50.756;4.472;2024-01-16T15:12:06;1.50;99.90
8832;DHT22;4452;50.756;4.472;2024-01-16T15:14:35;1.50;99.90
8832;DHT22;4452;50.756;4.472;2024-01-16T15:17:02;1.50;99.90
8832;DHT22;4452;50.756;4.472;2024-01-16T15:19:28;1.50;99.90
8832;DHT22;4452;50.756;4.472;2024-01-16T15:21:54;1.40;99.90
8832;DHT22;4452;50.756;4.472;2024-01-16T15:24:21;1.40;99.90
8832;DHT22;4452;50.756;4.472;2024-01-16T15:26:56;1.30;99.90
8832;DHT22;4452;50.756;4.472;2024-01-16T15:29:24;1.30;99.90
8832;DHT22;4452;50.756;4.472;2024-01-16T15:31:52;1.20;99.90
8832;DHT22;4452;50.756;4.472;2024-01-16T15:34:22;1.10;99.90
8832;DHT22;4452;50.756;4.472;2024-01-16T15:36:51;1.10;99.90
8832;DHT22;4452;50.756;4.472;2024-01-16T15:39:20;1.00;99.90
8832;DHT22;4452;50.756;4.472;2024-01-16T15:41:49;1.00;99.90
8832;DHT22;4452;50.756;4.472;2024-01-16T15:44:17;0.90;99.90
8832;DHT22;4452;50.756;4.472;2024-01-16T15:46:57;0.90;99.90
8832;DHT22;4452;50.756;4.472;2024-01-16T15:49:26;0.80;99.90
8832;DHT22;4452;50.756;4.472;2024-01-16T15:51:55;0.80;99.90
8832;DHT22;4452;50.756;4.472;2024-01-16T15:54:22;0.70;99.90
8832;DHT22;4452;50.756;4.472;2024-01-16T15:56:48;0.70;99.90
8832;DHT22;4452;50.756;4.472;2024-01-16T15:59:14;0.60;99.90
8832;DHT22;4452;50.756;4.472;2024-01-16T16:01:40;0.50;99.90
8832;DHT22;4452;50.756;4.472;2024-01-16T16:04:07;0.40;99.90
8832;DHT22;4452;50.756;4.472;2024-01-16T16:06:34;0.30;99.90
8832;DHT22;4452;50.756;4.472;2024-01-16T16:09:03;0.30;99.90
8832;DHT22;4452;50.756;4.472;2024-01-16T16:11:36;0.20;99.90
8832;DHT22;4452;50.756;4.472;2024-01-16T16:14:06;0.10;99.90
8832;DHT22;4452;50.756;4.472;2024-01-16T16:16:37;0.00;99.90
8832;DHT22;4452;50.756;4.472;2024-01-16T16:19:06;-0.10;99.90
8832;DHT22;4452;50.756;4.472;2024-01-16T16:21:35;-0.30;99.90
8832;DHT22;4452;50.756;4.472;2024-01-16T16:24:04;-0.30;99.90